createdAt,value
2022-08-16T00:01:40.708Z,96370.38
2022-08-16T00:04:07.893Z,96439.44
2022-08-16T00:06:39.464Z,96434.38
2022-08-16T00:09:06.878Z,96426.28
2022-08-16T00:11:33.776Z,96419.44
2022-08-16T00:14:00.706Z,96420.13
2022-08-16T00:17:05.504Z,96416.22
2022-08-16T00:19:22.500Z,96422.41
2022-08-16T00:21:53.392Z,96425.06
2022-08-16T00:24:32.760Z,96359.59
2022-08-16T00:27:01.360Z,96425.69
2022-08-16T00:29:29.814Z,96423.75
2022-08-16T00:32:01.263Z,96411.22
2022-08-16T00:34:43.196Z,96342.50
2022-08-16T00:37:20.886Z,96437.56
2022-08-16T00:39:58.465Z,96437.75
2022-08-16T00:42:32.069Z,96440.38
2022-08-16T00:45:08.079Z,96449.97
2022-08-16T00:47:39.240Z,96406.25
2022-08-16T00:50:11.600Z,96441.25
2022-08-16T00:52:50.122Z,96382.66
2022-08-16T00:55:22.439Z,96393.16
2022-08-16T00:57:59.274Z,96396.84
2022-08-16T01:00:28.919Z,96460.59
2022-08-16T01:02:57.812Z,96462.59
2022-08-16T01:05:25.632Z,96459.94
2022-08-16T01:07:53.823Z,96472.09
2022-08-16T01:10:32.828Z,96466.66
2022-08-16T01:13:15.218Z,96469.00
2022-08-16T01:15:52.570Z,96458.66
2022-08-16T01:18:39.401Z,96370.03
2022-08-16T01:21:39.766Z,96451.50
2022-08-16T01:24:53.525Z,96450.19
2022-08-16T01:27:20.911Z,96449.66
2022-08-16T01:30:20.669Z,96442.06
2022-08-16T01:33:02.190Z,96376.59
2022-08-16T01:35:41.076Z,96448.03
2022-08-16T01:38:49.041Z,96446.59
2022-08-16T01:41:26.370Z,96425.34
2022-08-16T01:44:00.943Z,96365.06
2022-08-16T01:46:41.743Z,96460.69
2022-08-16T01:49:11.456Z,96450.41
2022-08-16T01:51:41.576Z,96447.41
2022-08-16T01:54:10.557Z,96446.72
2022-08-16T01:56:40.968Z,96449.53
2022-08-16T01:59:15.405Z,96449.91
2022-08-16T02:01:43.247Z,96444.16
2022-08-16T02:04:10.707Z,96427.78
2022-08-16T02:06:46.830Z,96443.78
2022-08-16T02:09:14.927Z,96448.97
2022-08-16T02:11:53.264Z,96447.47
2022-08-16T02:14:26.217Z,96441.13
2022-08-16T02:16:53.956Z,96429.34
2022-08-16T02:19:21.344Z,96430.72
2022-08-16T02:22:08.319Z,96443.50
2022-08-16T02:24:42.307Z,96397.91
2022-08-16T02:27:12.452Z,96446.72
2022-08-16T02:29:41.280Z,96463.69
2022-08-16T02:32:49.267Z,96458.16
2022-08-16T02:34:58.398Z,96464.69
2022-08-16T02:37:39.837Z,96409.88
2022-08-16T02:40:13.281Z,96418.69
2022-08-16T02:42:49.626Z,96467.06
2022-08-16T02:45:17.857Z,96461.41
2022-08-16T02:48:00.331Z,96458.38
2022-08-16T02:50:55.563Z,96449.75
2022-08-16T02:53:18.072Z,96453.66
2022-08-16T02:55:45.372Z,96457.66
2022-08-16T02:58:17.647Z,96374.00
2022-08-16T03:00:45.494Z,96460.13
2022-08-16T03:03:17.966Z,96459.13
2022-08-16T03:05:50.027Z,96462.78
2022-08-16T03:08:49.693Z,96458.66
2022-08-16T03:11:06.638Z,96458.03
2022-08-16T03:13:44.123Z,96465.03
2022-08-16T03:16:38.834Z,96452.56
2022-08-16T03:19:01.637Z,96461.19
2022-08-16T03:21:29.422Z,96155.44
2022-08-16T03:24:29.445Z,96465.44
2022-08-16T03:26:53.225Z,96467.41
2022-08-16T03:29:19.852Z,96465.84
2022-08-16T03:31:46.911Z,96458.75
2022-08-16T03:34:19.411Z,96475.34
2022-08-16T03:36:47.440Z,96466.06
2022-08-16T03:39:15.052Z,96476.41
2022-08-16T03:41:50.333Z,96478.78
2022-08-16T03:44:40.758Z,96429.53
2022-08-16T03:47:10.319Z,96481.41
2022-08-16T03:49:37.705Z,96427.28
2022-08-16T03:52:05.770Z,96473.84
2022-08-16T03:54:32.427Z,96489.94
2022-08-16T03:57:02.859Z,96486.75
2022-08-16T03:59:32.406Z,96480.53
2022-08-16T04:02:01.648Z,96440.88
2022-08-16T04:04:33.615Z,96483.38
2022-08-16T04:07:05.838Z,96492.44
2022-08-16T04:09:37.845Z,96486.88
2022-08-16T04:12:10.587Z,96485.31
2022-08-16T04:14:46.638Z,96477.84
2022-08-16T04:17:15.727Z,96479.72
2022-08-16T04:19:45.605Z,96482.66
2022-08-16T04:22:13.937Z,96454.56
2022-08-16T04:24:54.126Z,96444.38
2022-08-16T04:27:21.994Z,96468.56
2022-08-16T04:29:52.256Z,96486.50
2022-08-16T04:32:19.837Z,96484.72
2022-08-16T04:34:47.186Z,96484.63
2022-08-16T04:37:16.067Z,96498.13
2022-08-16T04:39:46.529Z,96474.50
2022-08-16T04:42:17.773Z,96484.75
2022-08-16T04:44:53.458Z,96484.34
2022-08-16T04:47:24.453Z,96487.50
2022-08-16T04:49:52.692Z,96483.44
2022-08-16T04:52:33.917Z,96488.72
2022-08-16T04:55:37.929Z,96486.25
2022-08-16T04:58:45.296Z,96488.16
2022-08-16T05:00:54.279Z,96489.69
2022-08-16T05:03:21.642Z,96493.78
2022-08-16T05:05:59.396Z,96493.03
2022-08-16T05:08:32.551Z,96499.88
2022-08-16T05:11:01.436Z,96494.75
2022-08-16T05:13:39.999Z,96501.28
2022-08-16T05:16:20.116Z,96504.78
2022-08-16T05:18:49.071Z,96508.16
2022-08-16T05:21:16.067Z,96502.22
2022-08-16T05:23:51.628Z,96491.50
2022-08-16T05:26:24.685Z,96480.56
2022-08-16T05:28:56.043Z,96479.44
2022-08-16T05:31:29.919Z,96466.91
2022-08-16T05:34:01.115Z,96476.69
2022-08-16T05:36:34.139Z,96490.94
2022-08-16T05:39:08.820Z,96434.78
2022-08-16T05:41:44.788Z,96470.44
2022-08-16T05:44:22.981Z,96473.97
2022-08-16T05:46:54.720Z,96482.09
2022-08-16T05:49:23.265Z,96489.41
2022-08-16T05:51:50.394Z,96481.63
2022-08-16T05:54:25.115Z,96396.56
2022-08-16T05:56:53.573Z,96480.91
2022-08-16T05:59:22.163Z,96480.03
2022-08-16T06:01:50.768Z,96454.56
2022-08-16T06:04:35.219Z,96486.38
2022-08-16T06:07:08.260Z,96493.25
2022-08-16T06:09:42.832Z,96490.59
2022-08-16T06:12:27.120Z,96492.47
2022-08-16T06:15:07.854Z,96489.19
2022-08-16T06:17:42.738Z,96475.31
2022-08-16T06:20:24.041Z,96479.44
2022-08-16T06:22:58.456Z,96368.16
2022-08-16T06:25:35.890Z,96430.75
2022-08-16T06:28:08.428Z,96423.63
2022-08-16T06:30:43.179Z,96409.69
2022-08-16T06:33:12.423Z,96453.25
2022-08-16T06:35:41.727Z,96446.25
2022-08-16T06:38:32.428Z,96446.69
2022-08-16T06:40:55.633Z,96440.53
2022-08-16T06:43:27.654Z,96437.78
2022-08-16T06:45:55.673Z,96448.69
2022-08-16T06:48:32.497Z,96435.84
2022-08-16T06:51:01.761Z,96442.53
2022-08-16T06:53:29.745Z,96438.56
2022-08-16T06:55:59.047Z,96426.19
2022-08-16T06:58:31.724Z,96432.38
2022-08-16T07:01:00.470Z,96437.88
2022-08-16T07:03:32.200Z,96433.22
2022-08-16T07:05:59.772Z,96427.53
2022-08-16T07:08:28.087Z,96429.25
2022-08-16T07:10:56.024Z,96447.03
2022-08-16T07:13:51.311Z,96427.19
2022-08-16T07:16:15.520Z,96384.91
2022-08-16T07:19:01.627Z,96425.19
2022-08-16T07:21:46.172Z,96423.25
2022-08-16T07:24:30.508Z,96392.13
2022-08-16T07:27:00.676Z,96415.28
2022-08-16T07:29:31.802Z,96403.78
2022-08-16T07:32:00.791Z,96417.66
2022-08-16T07:34:35.194Z,96415.06
2022-08-16T07:37:07.209Z,96360.72
2022-08-16T07:39:34.295Z,96383.75
2022-08-16T07:42:09.891Z,96410.19
2022-08-16T07:44:49.100Z,96422.91
2022-08-16T07:47:17.508Z,96382.09
2022-08-16T07:49:52.804Z,96434.47
2022-08-16T07:52:20.821Z,96416.13
2022-08-16T07:54:48.986Z,96353.69
2022-08-16T07:57:19.858Z,96415.72
2022-08-16T07:59:51.057Z,96412.06
2022-08-16T08:02:20.253Z,96369.69
2022-08-16T08:04:49.000Z,96413.69
2022-08-16T08:07:16.506Z,96378.47
2022-08-16T08:09:44.149Z,96405.63
2022-08-16T08:12:32.286Z,96351.59
2022-08-16T08:14:59.475Z,96405.84
2022-08-16T08:17:42.496Z,96396.91
2022-08-16T08:20:26.379Z,96355.84
2022-08-16T08:23:01.088Z,96395.19
2022-08-16T08:25:53.435Z,96391.69
2022-08-16T08:28:17.781Z,96391.69
2022-08-16T08:30:51.833Z,96387.28
2022-08-16T08:33:28.725Z,96314.53
2022-08-16T08:35:57.264Z,96368.31
2022-08-16T08:38:44.178Z,96354.25
2022-08-16T08:41:18.352Z,96390.47
2022-08-16T08:43:46.588Z,96377.41
2022-08-16T08:46:18.404Z,96380.00
2022-08-16T08:49:00.037Z,96386.22
2022-08-16T08:51:31.891Z,96379.06
2022-08-16T08:54:06.744Z,96344.69
2022-08-16T08:56:37.288Z,96374.59
2022-08-16T08:59:13.564Z,96378.19
2022-08-16T09:01:57.263Z,96371.69
2022-08-16T09:04:27.149Z,96383.66
2022-08-16T09:06:54.548Z,96357.63
2022-08-16T09:09:23.056Z,96326.47
2022-08-16T09:12:04.033Z,96234.91
2022-08-16T09:14:35.623Z,96366.78
2022-08-16T09:17:11.805Z,96349.22
2022-08-16T09:19:41.365Z,96284.22
2022-08-16T09:22:20.963Z,96391.03
2022-08-16T09:24:52.573Z,96377.72
2022-08-16T09:27:21.776Z,96385.56
2022-08-16T09:30:00.126Z,96361.00
2022-08-16T09:32:30.957Z,96350.13
2022-08-16T09:34:59.709Z,96345.53
2022-08-16T09:37:29.599Z,96352.44
2022-08-16T09:39:59.763Z,96358.44
2022-08-16T09:42:29.075Z,96371.91
2022-08-16T09:45:11.273Z,96381.19
2022-08-16T09:47:57.224Z,96380.13
2022-08-16T09:50:36.831Z,96350.88
2022-08-16T09:53:15.278Z,96370.16
2022-08-16T09:55:45.980Z,96373.78
2022-08-16T09:58:41.399Z,96381.84
2022-08-16T10:01:02.943Z,96311.53
2022-08-16T10:03:30.482Z,96382.31
2022-08-16T10:05:58.083Z,96383.66
2022-08-16T10:08:26.000Z,96386.53
2022-08-16T10:11:29.377Z,96384.44
2022-08-16T10:13:56.062Z,96242.25
2022-08-16T10:16:22.786Z,96377.63
2022-08-16T10:19:01.827Z,96350.72
2022-08-16T10:21:33.604Z,96363.06
2022-08-16T10:24:01.465Z,96347.91
2022-08-16T10:27:18.204Z,96381.56
2022-08-16T10:29:20.184Z,96351.84
2022-08-16T10:31:53.855Z,96359.59
2022-08-16T10:34:32.058Z,96386.06
2022-08-16T10:37:02.034Z,96376.44
2022-08-16T10:39:40.839Z,96372.56
2022-08-16T10:42:10.258Z,96334.72
2022-08-16T10:44:40.464Z,96354.13
2022-08-16T10:47:10.079Z,96371.06
2022-08-16T10:49:39.164Z,96362.63
2022-08-16T10:52:19.029Z,96370.75
2022-08-16T10:57:34.778Z,96358.91
2022-08-16T11:00:06.051Z,96371.56
2022-08-16T11:02:58.615Z,96363.69
2022-08-16T11:05:28.674Z,96368.78
2022-08-16T11:07:55.589Z,96353.44
2022-08-16T11:19:03.962Z,96334.03
2022-08-16T11:21:34.041Z,96339.81
2022-08-16T11:24:01.818Z,96362.41
2022-08-16T11:26:30.713Z,96368.72
2022-08-16T11:29:14.456Z,96356.44
2022-08-16T11:31:45.685Z,96328.31
2022-08-16T11:34:21.229Z,96328.75
2022-08-16T11:36:53.974Z,96358.47
2022-08-16T11:39:29.455Z,96368.88
2022-08-16T11:41:57.228Z,96356.09
2022-08-16T11:44:56.211Z,96306.69
2022-08-16T11:47:11.795Z,96356.41
2022-08-16T11:49:38.421Z,96363.94
2022-08-16T11:52:05.324Z,96340.16
2022-08-16T11:54:33.216Z,96338.06
2022-08-16T11:57:04.544Z,96338.47
2022-08-16T11:59:39.953Z,96317.69
2022-08-16T12:02:32.595Z,96269.06
2022-08-16T12:04:54.723Z,96112.38
2022-08-16T12:07:23.505Z,96300.63
2022-08-16T12:09:53.290Z,96337.53
2022-08-16T12:12:21.019Z,96337.16
2022-08-16T12:14:55.857Z,96341.03
2022-08-16T12:17:32.069Z,96311.25
2022-08-16T12:20:00.842Z,96331.72
2022-08-16T12:22:29.167Z,96328.16
2022-08-16T12:24:55.846Z,96331.28
2022-08-16T12:27:24.751Z,96321.63
2022-08-16T12:29:58.421Z,96280.63
2022-08-16T12:32:37.811Z,96322.41
2022-08-16T12:35:17.274Z,96320.13
2022-08-16T12:37:47.318Z,96311.81
2022-08-16T12:40:25.045Z,96310.38
2022-08-16T12:42:58.841Z,96315.84
2022-08-16T12:45:28.489Z,96280.66
2022-08-16T12:48:33.728Z,96258.75
2022-08-16T12:51:01.323Z,96295.75
2022-08-16T12:53:33.510Z,96296.41
2022-08-16T12:56:01.033Z,96289.13
2022-08-16T12:58:50.603Z,96295.75
2022-08-16T13:01:28.741Z,96290.00
2022-08-16T13:04:11.447Z,96286.47
2022-08-16T13:06:42.258Z,96288.78
2022-08-16T13:09:26.611Z,96299.50
2022-08-16T13:12:07.305Z,96298.31
2022-08-16T13:14:41.224Z,96283.31
2022-08-16T13:17:17.029Z,96255.63
2022-08-16T13:22:34.400Z,96278.63
2022-08-16T13:25:01.124Z,96263.00
2022-08-16T13:28:02.747Z,96279.88
2022-08-16T13:30:35.440Z,96268.59
2022-08-16T13:33:11.526Z,96277.66
2022-08-16T13:35:44.600Z,96265.84
2022-08-16T13:38:24.597Z,96252.97
2022-08-16T13:40:57.213Z,96220.78
2022-08-16T13:43:28.884Z,96263.44
2022-08-16T13:46:04.221Z,96198.50
2022-08-16T13:48:42.898Z,96270.28
2022-08-16T13:51:18.033Z,96250.94
2022-08-16T13:53:49.631Z,96253.91
2022-08-16T13:56:25.233Z,96262.94
2022-08-16T13:58:54.116Z,96254.41
2022-08-16T14:01:22.364Z,96261.81
2022-08-16T14:03:54.532Z,96241.78
2022-08-16T14:06:22.087Z,96225.28
2022-08-16T14:08:50.243Z,96225.13
2022-08-16T14:11:26.212Z,96264.50
2022-08-16T14:13:53.420Z,96258.97
2022-08-16T14:16:24.239Z,96279.44
2022-08-16T14:19:00.196Z,96277.88
2022-08-16T14:21:34.828Z,96273.44
2022-08-16T14:24:12.895Z,96270.13
2022-08-16T14:26:52.813Z,96195.66
2022-08-16T14:29:20.006Z,96272.06
2022-08-16T14:31:46.792Z,96228.69
2022-08-16T14:34:20.868Z,96262.84
2022-08-16T14:36:52.097Z,96252.78
2022-08-16T14:39:21.996Z,96154.91
2022-08-16T14:41:49.303Z,96267.56
2022-08-16T14:44:20.067Z,96271.19
2022-08-16T14:46:46.912Z,96269.84
2022-08-16T14:49:14.524Z,96243.97
2022-08-16T14:51:46.182Z,96232.59
2022-08-16T14:54:15.228Z,96244.81
2022-08-16T14:56:54.458Z,96255.69
2022-08-16T14:59:21.960Z,96275.94
2022-08-16T15:01:59.341Z,96268.59
2022-08-16T15:04:37.902Z,96284.88
2022-08-16T15:07:15.939Z,96244.81
2022-08-16T15:10:00.689Z,96242.53
2022-08-16T15:12:31.172Z,96278.09
2022-08-16T15:15:04.402Z,96288.47
2022-08-16T15:17:39.615Z,96284.72
2022-08-16T15:20:08.644Z,96300.72
2022-08-16T15:22:41.621Z,96302.94
2022-08-16T15:25:13.802Z,96297.31
2022-08-16T15:27:42.688Z,96296.28
2022-08-16T15:30:57.316Z,96304.13
2022-08-16T15:33:07.888Z,96301.00
2022-08-16T15:35:38.737Z,96300.97
2022-08-16T15:38:08.848Z,96318.63
2022-08-16T15:40:54.902Z,96309.53
2022-08-16T15:43:33.870Z,96323.47
2022-08-16T15:46:54.553Z,96272.41
2022-08-16T15:49:15.482Z,96300.53
2022-08-16T15:51:45.453Z,96238.41
2022-08-16T15:54:16.591Z,96322.97
2022-08-16T15:57:00.211Z,96325.13
2022-08-16T15:59:48.104Z,96325.69
2022-08-16T16:02:20.559Z,96283.28
2022-08-16T16:04:54.901Z,96340.38
2022-08-16T16:07:21.966Z,96301.06
2022-08-16T16:09:48.988Z,96285.31
2022-08-16T16:12:50.283Z,96330.50
2022-08-16T16:15:06.663Z,96328.78
2022-08-16T16:17:34.339Z,96212.41
2022-08-16T16:20:14.599Z,96338.50
2022-08-16T16:22:43.582Z,96342.50
2022-08-16T16:25:15.770Z,96349.69
2022-08-16T16:27:43.619Z,96277.25
2022-08-16T16:30:32.749Z,96327.56
2022-08-16T16:32:58.809Z,96378.38
2022-08-16T16:35:32.564Z,96375.81
2022-08-16T16:37:59.843Z,96379.09
2022-08-16T16:40:32.235Z,96368.97
2022-08-16T16:43:00.002Z,96373.81
2022-08-16T16:45:33.329Z,96374.66
2022-08-16T16:48:12.058Z,96378.25
2022-08-16T16:50:44.692Z,96382.91
2022-08-16T16:53:17.452Z,96368.44
2022-08-16T16:55:47.484Z,96368.44
2022-08-16T16:58:43.153Z,96355.91
2022-08-16T17:01:10.990Z,96374.97
2022-08-16T17:03:38.761Z,96376.34
2022-08-16T17:06:10.406Z,96327.88
2022-08-16T17:08:40.966Z,96409.81
2022-08-16T17:11:10.019Z,96371.78
2022-08-16T17:13:37.199Z,96372.78
2022-08-16T17:16:05.319Z,96356.00
2022-08-16T17:19:15.715Z,96379.72
2022-08-16T17:21:19.165Z,96376.97
2022-08-16T17:23:58.226Z,96375.69
2022-08-16T17:26:29.557Z,96385.50
2022-08-16T17:28:58.795Z,96380.03
2022-08-16T17:31:41.044Z,96374.94
2022-08-16T17:34:29.319Z,96395.13
2022-08-16T17:36:59.752Z,96408.03
2022-08-16T17:39:29.604Z,96412.53
2022-08-16T17:41:58.218Z,96399.44
2022-08-16T17:44:25.372Z,96416.47
2022-08-16T17:46:53.166Z,96392.69
2022-08-16T17:49:21.264Z,96396.38
2022-08-16T17:51:48.002Z,96380.53
2022-08-16T17:54:20.248Z,96425.66
2022-08-16T17:57:01.311Z,96423.88
2022-08-16T17:59:29.327Z,96366.34
2022-08-16T18:01:56.720Z,96429.09
2022-08-16T18:04:49.899Z,96432.66
2022-08-16T18:07:11.797Z,96439.97
2022-08-16T18:09:41.048Z,96445.13
2022-08-16T18:12:44.786Z,96458.41
2022-08-16T18:15:04.565Z,96430.91
2022-08-16T18:17:32.032Z,96425.31
2022-08-16T18:19:58.821Z,96441.44
2022-08-16T18:22:30.608Z,96443.38
2022-08-16T18:24:58.348Z,96444.34
2022-08-16T18:27:27.082Z,96430.63
2022-08-16T18:29:54.873Z,96457.97
2022-08-16T18:32:24.978Z,96464.44
2022-08-16T18:34:53.846Z,96422.56
2022-08-16T18:37:21.837Z,96462.78
2022-08-16T18:39:48.554Z,96470.66
2022-08-16T18:42:15.677Z,96459.97
2022-08-16T18:44:43.830Z,96475.97
2022-08-16T18:47:10.598Z,96448.94
2022-08-16T18:49:37.302Z,96479.13
2022-08-16T18:52:04.291Z,96475.06
2022-08-16T18:54:32.902Z,96453.22
2022-08-16T18:57:00.788Z,96480.44
2022-08-16T18:59:30.976Z,96481.38
2022-08-16T19:02:00.282Z,96482.50
2022-08-16T19:04:56.411Z,96490.19
2022-08-16T19:07:29.605Z,96486.41
2022-08-16T19:09:58.195Z,96473.50
2022-08-16T19:12:38.417Z,96493.28
2022-08-16T19:15:18.108Z,96444.53
2022-08-16T19:17:45.585Z,96491.66
2022-08-16T19:20:17.376Z,96500.13
2022-08-16T19:23:04.500Z,96504.66
2022-08-16T19:25:47.514Z,96513.88
2022-08-16T19:28:49.708Z,96514.41
2022-08-16T19:31:16.481Z,96499.25
2022-08-16T19:33:54.145Z,96508.09
2022-08-16T19:36:30.407Z,96508.34
2022-08-16T19:39:05.149Z,96496.72
2022-08-16T19:41:33.071Z,96514.22
2022-08-16T19:43:59.726Z,96477.06
2022-08-16T19:46:26.401Z,96516.66
2022-08-16T19:48:53.090Z,96514.94
2022-08-16T19:51:19.763Z,96501.53
2022-08-16T19:53:46.381Z,96512.53
2022-08-16T19:56:13.064Z,96490.31
2022-08-16T19:58:50.949Z,96501.03
2022-08-16T20:01:26.322Z,96501.59
2022-08-16T20:03:52.955Z,96498.13
2022-08-16T20:06:37.607Z,96502.28
2022-08-16T20:09:06.423Z,96495.91
2022-08-16T20:11:34.688Z,96513.50
2022-08-16T20:14:01.762Z,96478.91
2022-08-16T20:16:28.427Z,96505.00
2022-08-16T20:18:55.083Z,96510.22
2022-08-16T20:21:21.775Z,96527.78
2022-08-16T20:23:48.383Z,96517.41
2022-08-16T20:26:15.441Z,96525.06
2022-08-16T20:28:52.991Z,96523.06
2022-08-16T20:31:25.715Z,96517.88
2022-08-16T20:33:53.337Z,96472.13
2022-08-16T20:36:20.307Z,96526.22
2022-08-16T20:38:47.730Z,96536.31
2022-08-16T20:41:15.704Z,96532.25
2022-08-16T20:43:42.420Z,96496.59
2022-08-16T20:46:09.597Z,96522.16
2022-08-16T20:48:36.270Z,96522.59
2022-08-16T20:51:03.343Z,96527.81
2022-08-16T20:53:29.941Z,96529.66
2022-08-16T20:55:56.781Z,96497.47
2022-08-16T20:58:23.403Z,96472.47
2022-08-16T21:00:50.226Z,96542.59
2022-08-16T21:03:16.987Z,96493.78
2022-08-16T21:05:46.702Z,96535.88
2022-08-16T21:08:44.079Z,96515.06
2022-08-16T21:11:04.667Z,96534.00
2022-08-16T21:13:32.823Z,96511.81
2022-08-16T21:16:01.092Z,96529.50
2022-08-16T21:18:28.049Z,96531.06
2022-08-16T21:20:55.361Z,96445.22
2022-08-16T21:23:22.277Z,96536.03
2022-08-16T21:25:58.242Z,96511.56
2022-08-16T21:28:41.839Z,96553.75
2022-08-16T21:31:14.308Z,96558.38
2022-08-16T21:33:41.040Z,96549.06
2022-08-16T21:36:08.167Z,96557.59
2022-08-16T21:38:34.960Z,96519.75
2022-08-16T21:41:05.663Z,96548.38
2022-08-16T21:43:33.536Z,96542.75
2022-08-16T21:46:01.895Z,96546.56
2022-08-16T21:48:34.779Z,96537.19
2022-08-16T21:51:06.504Z,96493.69
2022-08-16T21:53:33.386Z,96549.69
2022-08-16T21:56:01.271Z,96541.59
2022-08-16T21:58:29.989Z,96547.91
2022-08-16T22:00:56.925Z,96492.91
2022-08-16T22:03:24.373Z,96517.34
2022-08-16T22:06:11.699Z,96538.59
2022-08-16T22:08:49.782Z,96496.84
2022-08-16T22:11:24.273Z,96549.25
2022-08-16T22:13:58.122Z,96510.06
2022-08-16T22:16:32.237Z,96561.69
2022-08-16T22:19:00.157Z,96560.63
2022-08-16T22:21:27.067Z,96558.50
2022-08-16T22:23:56.764Z,96560.06
2022-08-16T22:26:32.597Z,96553.78
2022-08-16T22:29:11.204Z,96556.38
2022-08-16T22:31:39.929Z,96551.09
2022-08-16T22:34:07.970Z,96560.56
2022-08-16T22:36:35.411Z,96494.97
2022-08-16T22:39:06.913Z,96524.66
2022-08-16T22:41:34.940Z,96548.47
2022-08-16T22:44:03.433Z,96543.69
2022-08-16T22:46:31.025Z,96547.75
2022-08-16T22:48:58.245Z,96524.47
2022-08-16T22:51:27.541Z,96538.81
2022-08-16T22:53:55.340Z,96481.25
2022-08-16T22:56:23.303Z,96543.91
2022-08-16T22:58:50.084Z,96461.13
2022-08-16T23:01:18.516Z,96545.00
2022-08-16T23:03:45.254Z,96543.06
2022-08-16T23:06:12.577Z,96551.41
2022-08-16T23:08:41.400Z,96537.22
2022-08-16T23:11:10.569Z,96542.19
2022-08-16T23:13:37.820Z,96491.50
2022-08-16T23:16:16.706Z,96545.88
2022-08-16T23:18:43.341Z,96543.31
2022-08-16T23:21:10.848Z,96540.91
2022-08-16T23:23:38.767Z,96543.91
2022-08-16T23:26:46.135Z,96538.22
2022-08-16T23:28:53.432Z,96529.41
2022-08-16T23:31:20.260Z,96473.97
2022-08-16T23:33:46.991Z,96523.25
2022-08-16T23:36:13.727Z,96455.53
2022-08-16T23:38:41.317Z,96489.06
2022-08-16T23:41:12.243Z,96525.63
2022-08-16T23:43:43.535Z,96452.06
2022-08-16T23:46:15.145Z,96534.81
2022-08-16T23:49:58.644Z,96521.78
2022-08-16T23:51:29.112Z,96519.19
2022-08-16T23:53:55.943Z,96386.00
2022-08-16T23:56:22.698Z,96430.13
2022-08-16T23:58:52.585Z,96520.63
